createdAt,value
2022-10-09T00:01:03.317Z,7.26
2022-10-09T00:03:30.982Z,7.22
2022-10-09T00:05:58.833Z,7.19
2022-10-09T00:08:26.443Z,7.16
2022-10-09T00:10:55.418Z,7.14
2022-10-09T00:13:23.545Z,7.09
2022-10-09T00:15:51.089Z,7.06
2022-10-09T00:18:19.733Z,7.04
2022-10-09T00:20:48.102Z,7.01
2022-10-09T00:23:17.397Z,7.02
2022-10-09T00:25:52.098Z,7.00
2022-10-09T00:28:21.101Z,6.98
2022-10-09T00:30:48.839Z,6.96
2022-10-09T00:33:16.468Z,6.93
2022-10-09T00:35:44.154Z,6.91
2022-10-09T00:38:11.858Z,6.90
2022-10-09T00:40:40.269Z,6.91
2022-10-09T00:43:13.306Z,6.92
2022-10-09T00:45:45.033Z,6.94
2022-10-09T00:48:13.527Z,6.91
2022-10-09T00:50:44.739Z,6.91
2022-10-09T00:53:16.737Z,6.89
2022-10-09T00:55:44.381Z,6.88
2022-10-09T00:58:13.765Z,6.86
2022-10-09T01:00:42.774Z,6.88
2022-10-09T01:03:10.318Z,6.87
2022-10-09T01:05:49.400Z,6.86
2022-10-09T01:08:21.441Z,6.85
2022-10-09T01:10:55.348Z,6.85
2022-10-09T01:13:29.127Z,6.86
2022-10-09T01:16:01.207Z,6.86
2022-10-09T01:18:38.136Z,6.89
2022-10-09T01:21:11.833Z,6.95
2022-10-09T01:23:54.060Z,7.02
2022-10-09T01:26:35.694Z,7.07
2022-10-09T01:29:08.893Z,7.09
2022-10-09T01:31:40.357Z,7.10
2022-10-09T01:34:09.351Z,7.08
2022-10-09T01:36:38.024Z,7.09
2022-10-09T01:39:08.595Z,7.05
2022-10-09T01:41:36.325Z,7.04
2022-10-09T01:44:15.445Z,7.03
2022-10-09T01:46:43.091Z,7.00
2022-10-09T01:49:18.550Z,6.97
2022-10-09T01:51:52.718Z,6.95
2022-10-09T01:54:30.170Z,6.93
2022-10-09T01:57:03.333Z,6.90
2022-10-09T01:59:37.272Z,6.90
2022-10-09T02:02:06.073Z,6.88
2022-10-09T02:04:34.905Z,6.88
2022-10-09T02:07:02.970Z,6.87
2022-10-09T02:09:31.462Z,6.85
2022-10-09T02:12:05.293Z,6.83
2022-10-09T02:14:34.796Z,6.83
2022-10-09T02:17:06.767Z,6.81
2022-10-09T02:19:39.971Z,6.78
2022-10-09T02:22:14.002Z,6.75
2022-10-09T02:24:43.201Z,6.73
2022-10-09T02:27:12.256Z,6.70
2022-10-09T02:29:42.589Z,6.68
2022-10-09T02:32:10.959Z,6.65
2022-10-09T02:34:38.665Z,6.63
2022-10-09T02:37:06.854Z,6.62
2022-10-09T02:39:34.618Z,6.59
2022-10-09T02:42:02.281Z,6.56
2022-10-09T02:44:30.151Z,6.55
2022-10-09T02:46:59.030Z,6.53
2022-10-09T02:49:26.583Z,6.52
2022-10-09T02:51:54.219Z,6.50
2022-10-09T02:54:21.767Z,6.49
2022-10-09T02:56:49.284Z,6.47
2022-10-09T02:59:17.021Z,6.45
2022-10-09T03:01:45.828Z,6.44
2022-10-09T03:04:14.793Z,6.41
2022-10-09T03:06:42.678Z,6.38
2022-10-09T03:09:10.194Z,6.38
2022-10-09T03:11:37.746Z,6.37
2022-10-09T03:14:05.253Z,6.38
2022-10-09T03:16:32.849Z,6.37
2022-10-09T03:19:00.438Z,6.38
2022-10-09T03:21:29.350Z,6.38
2022-10-09T03:23:57.362Z,6.36
2022-10-09T03:26:27.661Z,6.36
2022-10-09T03:28:56.629Z,6.35
2022-10-09T03:31:50.695Z,6.34
2022-10-09T03:34:14.487Z,6.35
2022-10-09T03:36:43.474Z,6.35
2022-10-09T03:39:11.351Z,6.36
2022-10-09T03:41:38.906Z,6.36
2022-10-09T03:44:06.625Z,6.36
2022-10-09T03:46:34.304Z,6.37
2022-10-09T03:49:01.894Z,6.38
2022-10-09T03:51:29.435Z,6.41
2022-10-09T03:53:58.349Z,6.44
2022-10-09T03:56:26.051Z,6.49
2022-10-09T03:58:53.585Z,6.52
2022-10-09T04:01:21.157Z,6.55
2022-10-09T04:03:48.938Z,6.55
2022-10-09T04:06:17.495Z,6.57
2022-10-09T04:08:45.027Z,6.58
2022-10-09T04:11:13.903Z,6.59
2022-10-09T04:13:41.450Z,6.57
2022-10-09T04:16:12.545Z,6.57
2022-10-09T04:18:40.565Z,6.57
2022-10-09T04:21:08.712Z,6.55
2022-10-09T04:23:36.253Z,6.55
2022-10-09T04:26:03.850Z,6.55
2022-10-09T04:28:33.494Z,6.53
2022-10-09T04:31:01.382Z,6.52
2022-10-09T04:33:29.502Z,6.50
2022-10-09T04:35:57.949Z,6.48
2022-10-09T04:38:25.754Z,6.45
2022-10-09T04:40:57.779Z,6.41
2022-10-09T04:43:25.783Z,6.40
2022-10-09T04:45:54.767Z,6.39
2022-10-09T04:48:22.693Z,6.39
2022-10-09T04:50:50.411Z,6.38
2022-10-09T04:53:17.974Z,6.37
2022-10-09T04:55:46.278Z,6.36
2022-10-09T04:58:14.936Z,6.35
2022-10-09T05:00:43.412Z,6.35
2022-10-09T05:03:12.901Z,6.36
2022-10-09T05:05:40.570Z,6.35
2022-10-09T05:08:08.129Z,6.35
2022-10-09T05:10:35.667Z,6.33
2022-10-09T05:13:03.206Z,6.33
2022-10-09T05:15:30.905Z,6.33
2022-10-09T05:17:58.645Z,6.32
2022-10-09T05:20:27.586Z,6.32
2022-10-09T05:22:55.125Z,6.31
2022-10-09T05:25:22.630Z,6.31
2022-10-09T05:27:50.217Z,6.32
2022-10-09T05:30:17.975Z,6.31
2022-10-09T05:32:45.508Z,6.35
2022-10-09T05:35:13.040Z,6.36
2022-10-09T05:37:45.122Z,6.37
2022-10-09T05:40:12.742Z,6.39
2022-10-09T05:42:40.286Z,6.41
2022-10-09T05:45:09.394Z,6.43
2022-10-09T05:47:36.905Z,6.46
2022-10-09T05:50:04.845Z,6.48
2022-10-09T05:52:32.365Z,6.52
2022-10-09T05:55:01.298Z,6.56
2022-10-09T05:57:29.190Z,6.63
2022-10-09T05:59:56.693Z,6.66
2022-10-09T06:02:24.325Z,6.73
2022-10-09T06:04:51.927Z,6.80
2022-10-09T06:07:19.433Z,6.89
2022-10-09T06:09:46.958Z,6.99
2022-10-09T06:12:15.826Z,7.07
2022-10-09T06:14:43.357Z,7.19
2022-10-09T06:17:10.893Z,7.29
2022-10-09T06:19:38.398Z,7.42
2022-10-09T06:22:05.930Z,7.59
2022-10-09T06:24:33.447Z,7.76
2022-10-09T06:27:01.070Z,7.94
2022-10-09T06:29:30.517Z,8.08
2022-10-09T06:31:58.199Z,8.21
2022-10-09T06:34:25.970Z,8.31
2022-10-09T06:36:53.504Z,8.38
2022-10-09T06:39:21.094Z,8.49
2022-10-09T06:41:48.627Z,8.59
2022-10-09T06:44:17.348Z,8.60
2022-10-09T06:46:49.807Z,8.65
2022-10-09T06:49:17.378Z,8.75
2022-10-09T06:51:45.031Z,8.89
2022-10-09T06:54:14.211Z,8.99
2022-10-09T06:56:42.077Z,9.08
2022-10-09T06:59:12.010Z,9.21
2022-10-09T07:01:39.705Z,9.33
2022-10-09T07:04:11.739Z,9.48
2022-10-09T07:06:42.002Z,9.64
2022-10-09T07:09:12.338Z,9.80
2022-10-09T07:11:42.973Z,10.07
2022-10-09T07:14:11.925Z,10.37
2022-10-09T07:16:42.391Z,10.74
2022-10-09T07:19:12.859Z,10.98
2022-10-09T07:21:42.198Z,11.30
2022-10-09T07:24:11.186Z,11.55
2022-10-09T07:26:41.405Z,11.65
2022-10-09T07:29:10.157Z,11.58
2022-10-09T07:31:37.713Z,11.61
2022-10-09T07:34:06.230Z,11.63
2022-10-09T07:36:35.667Z,11.71
2022-10-09T07:39:03.352Z,11.79
2022-10-09T07:41:30.987Z,11.86
2022-10-09T07:43:58.958Z,11.90
2022-10-09T07:46:33.023Z,11.92
2022-10-09T07:49:01.922Z,11.92
2022-10-09T07:51:30.671Z,11.95
2022-10-09T07:54:01.743Z,11.97
2022-10-09T07:56:31.083Z,12.05
2022-10-09T07:59:00.161Z,12.08
2022-10-09T08:01:29.283Z,12.13
2022-10-09T08:03:57.536Z,12.24
2022-10-09T08:06:25.211Z,12.26
2022-10-09T08:08:54.324Z,12.29
2022-10-09T08:11:24.695Z,12.38
2022-10-09T08:13:53.655Z,12.49
2022-10-09T08:16:22.772Z,12.60
2022-10-09T08:18:50.454Z,12.74
2022-10-09T08:21:19.742Z,12.91
2022-10-09T08:23:47.439Z,13.03
2022-10-09T08:26:16.221Z,13.09
2022-10-09T08:28:45.459Z,13.17
2022-10-09T08:31:14.444Z,13.24
2022-10-09T08:33:42.229Z,13.44
2022-10-09T08:36:14.349Z,13.64
2022-10-09T08:38:47.642Z,13.74
2022-10-09T08:41:24.289Z,13.74
2022-10-09T08:44:01.067Z,13.82
2022-10-09T08:46:34.409Z,13.85
2022-10-09T08:49:05.242Z,13.99
2022-10-09T08:51:39.146Z,14.09
2022-10-09T08:54:14.427Z,14.24
2022-10-09T08:56:42.023Z,14.27
2022-10-09T08:59:12.793Z,14.34
2022-10-09T09:01:48.595Z,14.36
2022-10-09T09:04:34.314Z,14.48
2022-10-09T09:07:11.563Z,14.59
2022-10-09T09:09:47.960Z,14.78
2022-10-09T09:12:21.621Z,14.85
2022-10-09T09:15:02.328Z,14.94
2022-10-09T09:17:38.374Z,14.98
2022-10-09T09:20:15.958Z,15.07
2022-10-09T09:22:47.373Z,15.14
2022-10-09T09:25:20.803Z,15.15
2022-10-09T09:27:48.981Z,15.25
2022-10-09T09:30:21.578Z,15.36
2022-10-09T09:32:57.538Z,15.44
2022-10-09T09:35:30.927Z,15.57
2022-10-09T09:37:58.461Z,15.63
2022-10-09T09:40:36.863Z,15.63
2022-10-09T09:43:16.477Z,15.71
2022-10-09T09:45:46.132Z,15.70
2022-10-09T09:48:17.342Z,15.73
2022-10-09T09:50:52.981Z,15.68
2022-10-09T09:53:36.724Z,15.67
2022-10-09T09:56:04.912Z,15.55
2022-10-09T09:58:37.034Z,15.54
2022-10-09T10:01:07.595Z,15.64
2022-10-09T10:03:36.724Z,15.56
2022-10-09T10:06:04.759Z,15.62
2022-10-09T10:08:34.702Z,15.61
2022-10-09T10:11:04.284Z,15.65
2022-10-09T10:13:35.758Z,15.75
2022-10-09T10:16:04.493Z,15.73
2022-10-09T10:18:40.148Z,15.85
2022-10-09T10:21:12.249Z,15.91
2022-10-09T10:23:42.852Z,15.96
2022-10-09T10:26:21.522Z,16.02
2022-10-09T10:28:55.098Z,16.14
2022-10-09T10:31:48.607Z,16.22
2022-10-09T10:34:23.384Z,16.17
2022-10-09T10:37:02.478Z,16.25
2022-10-09T10:39:37.821Z,16.34
2022-10-09T10:42:16.514Z,16.45
2022-10-09T10:44:51.609Z,16.47
2022-10-09T10:47:24.750Z,16.52
2022-10-09T10:49:54.034Z,16.47
2022-10-09T10:52:36.214Z,16.88
2022-10-09T10:55:16.909Z,16.97
2022-10-09T10:57:52.929Z,16.81
2022-10-09T11:00:20.663Z,16.55
2022-10-09T11:03:02.771Z,16.49
2022-10-09T11:05:42.689Z,16.47
2022-10-09T11:08:26.315Z,16.57
2022-10-09T11:11:03.225Z,16.74
2022-10-09T11:13:34.905Z,17.00
2022-10-09T11:16:15.240Z,17.26
2022-10-09T11:18:56.073Z,17.36
2022-10-09T11:21:36.503Z,17.44
2022-10-09T11:24:26.663Z,17.43
2022-10-09T11:27:03.640Z,17.54
2022-10-09T11:29:38.150Z,17.66
2022-10-09T11:32:13.620Z,17.61
2022-10-09T11:34:45.771Z,17.57
2022-10-09T11:37:21.362Z,17.68
2022-10-09T11:39:49.038Z,17.65
2022-10-09T11:42:25.134Z,17.85
2022-10-09T11:45:03.634Z,17.94
2022-10-09T11:47:40.790Z,17.63
2022-10-09T11:50:23.710Z,17.43
2022-10-09T11:52:59.136Z,17.47
2022-10-09T11:55:28.554Z,17.49
2022-10-09T11:57:56.168Z,17.60
2022-10-09T12:00:32.030Z,17.72
2022-10-09T12:03:03.166Z,17.84
2022-10-09T12:05:39.689Z,17.83
2022-10-09T12:08:15.354Z,17.86
2022-10-09T12:10:51.967Z,17.96
2022-10-09T12:13:32.783Z,17.99
2022-10-09T12:16:01.094Z,17.81
2022-10-09T12:18:31.149Z,17.76
2022-10-09T12:21:02.342Z,17.50
2022-10-09T12:23:35.318Z,17.02
2022-10-09T12:26:03.679Z,17.11
2022-10-09T12:28:36.577Z,16.98
2022-10-09T12:31:08.140Z,17.00
2022-10-09T12:33:39.046Z,17.18
2022-10-09T12:36:13.258Z,17.43
2022-10-09T12:38:42.698Z,17.57
2022-10-09T12:41:20.133Z,17.63
2022-10-09T12:43:49.726Z,17.55
2022-10-09T12:46:27.499Z,17.25
2022-10-09T12:48:55.471Z,17.28
2022-10-09T12:51:26.135Z,17.40
2022-10-09T12:53:55.880Z,17.60
2022-10-09T12:56:26.398Z,17.45
2022-10-09T12:58:54.473Z,17.05
2022-10-09T13:01:22.824Z,16.79
2022-10-09T13:03:56.132Z,16.83
2022-10-09T13:06:26.109Z,16.84
2022-10-09T13:08:57.640Z,16.93
2022-10-09T13:11:31.418Z,17.19
2022-10-09T13:13:59.330Z,17.30
2022-10-09T13:16:27.097Z,17.32
2022-10-09T13:18:57.852Z,17.42
2022-10-09T13:21:31.511Z,17.25
2022-10-09T13:24:10.378Z,17.08
2022-10-09T13:26:39.666Z,16.97
2022-10-09T13:29:08.434Z,16.85
2022-10-09T13:31:36.952Z,16.85
2022-10-09T13:34:12.469Z,17.14
2022-10-09T13:36:40.100Z,17.27
2022-10-09T13:39:14.428Z,17.41
2022-10-09T13:41:43.822Z,17.21
2022-10-09T13:44:11.489Z,17.17
2022-10-09T13:46:39.030Z,16.96
2022-10-09T13:49:06.631Z,17.17
2022-10-09T13:51:34.628Z,17.30
2022-10-09T13:54:02.162Z,17.41
2022-10-09T13:56:31.044Z,17.36
2022-10-09T13:58:58.690Z,17.17
2022-10-09T14:01:26.320Z,16.94
2022-10-09T14:03:53.874Z,16.70
2022-10-09T14:06:22.348Z,16.61
2022-10-09T14:08:50.658Z,16.32
2022-10-09T14:11:18.245Z,16.20
2022-10-09T14:13:47.120Z,16.22
2022-10-09T14:16:15.666Z,16.31
2022-10-09T14:18:43.250Z,16.20
2022-10-09T14:21:15.004Z,16.08
2022-10-09T14:23:43.756Z,15.90
2022-10-09T14:26:11.530Z,15.86
2022-10-09T14:28:39.225Z,15.95
2022-10-09T14:31:08.781Z,15.95
2022-10-09T14:33:36.646Z,15.90
2022-10-09T14:36:08.757Z,15.80
2022-10-09T14:38:39.851Z,15.78
2022-10-09T14:41:07.787Z,15.74
2022-10-09T14:43:35.803Z,15.57
2022-10-09T14:46:06.417Z,15.53
2022-10-09T14:48:36.089Z,15.52
2022-10-09T14:51:04.741Z,15.51
2022-10-09T14:53:32.793Z,15.51
2022-10-09T14:56:03.444Z,15.48
2022-10-09T14:58:31.658Z,15.39
2022-10-09T15:00:59.898Z,15.34
2022-10-09T15:03:29.054Z,15.29
2022-10-09T15:05:59.536Z,15.28
2022-10-09T15:08:27.597Z,15.18
2022-10-09T15:10:55.606Z,15.09
2022-10-09T15:13:23.121Z,14.99
2022-10-09T15:15:50.653Z,14.93
2022-10-09T15:18:18.614Z,14.86
2022-10-09T15:20:47.069Z,14.78
2022-10-09T15:23:16.022Z,14.73
2022-10-09T15:25:49.189Z,14.66
2022-10-09T15:28:17.380Z,14.61
2022-10-09T15:30:45.992Z,14.54
2022-10-09T15:33:13.701Z,14.50
2022-10-09T15:35:41.647Z,14.44
2022-10-09T15:38:15.026Z,14.37
2022-10-09T15:40:46.140Z,14.27
2022-10-09T15:43:14.842Z,14.16
2022-10-09T15:45:42.889Z,14.10
2022-10-09T15:48:16.461Z,13.99
2022-10-09T15:50:46.335Z,13.90
2022-10-09T15:53:15.065Z,13.79
2022-10-09T15:55:45.958Z,13.70
2022-10-09T15:58:13.957Z,13.62
2022-10-09T16:00:43.893Z,13.51
2022-10-09T16:03:11.705Z,13.42
2022-10-09T16:05:40.346Z,13.32
2022-10-09T16:08:08.786Z,13.21
2022-10-09T16:10:46.338Z,13.12
2022-10-09T16:13:17.703Z,13.01
2022-10-09T16:15:47.333Z,12.91
2022-10-09T16:18:16.708Z,12.82
2022-10-09T16:20:44.697Z,12.71
2022-10-09T16:23:12.880Z,12.58
2022-10-09T16:25:41.481Z,12.47
2022-10-09T16:28:11.697Z,12.35
2022-10-09T16:30:42.210Z,12.23
2022-10-09T16:33:12.624Z,12.13
2022-10-09T16:35:40.791Z,12.03
2022-10-09T16:38:08.946Z,11.91
2022-10-09T16:43:24.048Z,11.70
2022-10-09T16:45:52.910Z,11.57
2022-10-09T16:48:20.462Z,11.47
2022-10-09T16:50:48.383Z,11.37
2022-10-09T16:53:15.901Z,11.29
2022-10-09T16:55:43.433Z,11.19
2022-10-09T16:58:10.972Z,11.10
2022-10-09T17:00:38.540Z,11.01
2022-10-09T17:03:07.461Z,10.92
2022-10-09T17:05:39.175Z,10.85
2022-10-09T17:08:06.739Z,10.75
2022-10-09T17:10:34.304Z,10.65
2022-10-09T17:13:01.825Z,10.60
2022-10-09T17:15:29.354Z,10.51
2022-10-09T17:17:56.888Z,10.43
2022-10-09T17:20:25.778Z,10.36
2022-10-09T17:22:53.293Z,10.27
2022-10-09T17:25:20.831Z,10.20
2022-10-09T17:27:48.375Z,10.13
2022-10-09T17:30:16.121Z,10.07
2022-10-09T17:32:43.701Z,10.01
2022-10-09T17:35:11.611Z,9.97
2022-10-09T17:37:40.498Z,9.94
2022-10-09T17:40:08.733Z,9.89
2022-10-09T17:42:36.283Z,9.86
2022-10-09T17:45:04.003Z,9.81
2022-10-09T17:47:31.571Z,9.78
2022-10-09T17:49:59.099Z,9.75
2022-10-09T17:52:26.701Z,9.73
2022-10-09T17:54:55.688Z,9.70
2022-10-09T17:57:23.259Z,9.66
2022-10-09T17:59:50.774Z,9.61
2022-10-09T18:02:18.321Z,9.56
2022-10-09T18:04:45.868Z,9.54
2022-10-09T18:07:13.830Z,9.50
2022-10-09T18:09:41.357Z,9.49
2022-10-09T18:12:10.238Z,9.44
2022-10-09T18:14:37.754Z,9.40
2022-10-09T18:17:05.274Z,9.38
2022-10-09T18:19:32.865Z,9.35
2022-10-09T18:22:00.393Z,9.30
2022-10-09T18:24:28.031Z,9.26
2022-10-09T18:26:55.586Z,9.23
2022-10-09T18:29:24.518Z,9.18
2022-10-09T18:31:55.556Z,9.14
2022-10-09T18:34:23.221Z,9.10
2022-10-09T18:36:52.178Z,9.07
2022-10-09T18:39:21.433Z,9.04
2022-10-09T18:41:48.982Z,9.00
2022-10-09T18:44:19.962Z,8.97
2022-10-09T18:46:52.561Z,8.96
2022-10-09T18:49:23.573Z,8.94
2022-10-09T18:51:52.158Z,8.91
2022-10-09T18:54:22.862Z,8.87
2022-10-09T18:56:50.538Z,8.85
2022-10-09T18:59:21.678Z,8.84
2022-10-09T19:01:50.776Z,8.82
2022-10-09T19:04:18.956Z,8.80
2022-10-09T19:06:46.633Z,8.81
2022-10-09T19:09:14.724Z,8.80
2022-10-09T19:11:42.302Z,8.79
2022-10-09T19:14:09.842Z,8.78
2022-10-09T19:16:37.380Z,8.75
2022-10-09T19:19:07.111Z,8.72
2022-10-09T19:21:36.272Z,8.72
2022-10-09T19:24:06.131Z,8.71
2022-10-09T19:26:35.200Z,8.70
2022-10-09T19:29:02.829Z,8.68
2022-10-09T19:31:31.891Z,8.66
2022-10-09T19:34:00.802Z,8.63
2022-10-09T19:36:33.048Z,8.59
2022-10-09T19:39:00.677Z,8.59
2022-10-09T19:41:28.401Z,8.57
2022-10-09T19:43:56.052Z,8.55
2022-10-09T19:46:23.872Z,8.54
2022-10-09T19:48:51.819Z,8.53
2022-10-09T19:51:21.505Z,8.51
2022-10-09T19:53:52.064Z,8.47
2022-10-09T19:56:21.766Z,8.47
2022-10-09T19:58:50.598Z,8.43
2022-10-09T20:01:19.789Z,8.39
2022-10-09T20:03:48.538Z,8.38
2022-10-09T20:06:16.579Z,8.38
2022-10-09T20:08:45.116Z,8.38
2022-10-09T20:11:14.101Z,8.37
2022-10-09T20:13:43.039Z,8.40
2022-10-09T20:16:12.947Z,8.38
2022-10-09T20:18:42.144Z,8.40
2022-10-09T20:21:10.559Z,8.41
2022-10-09T20:23:38.100Z,8.40
2022-10-09T20:26:08.406Z,8.41
2022-10-09T20:28:38.390Z,8.40
2022-10-09T20:31:08.110Z,8.43
2022-10-09T20:33:36.600Z,8.44
2022-10-09T20:36:05.414Z,8.44
2022-10-09T20:38:32.997Z,8.47
2022-10-09T20:41:04.551Z,8.47
2022-10-09T20:43:32.078Z,8.49
2022-10-09T20:46:00.943Z,8.52
2022-10-09T20:48:28.477Z,8.53
2022-10-09T20:50:55.995Z,8.55
2022-10-09T20:53:23.521Z,8.60
2022-10-09T20:55:51.030Z,8.61
2022-10-09T20:58:18.698Z,8.66
2022-10-09T21:00:46.278Z,8.67
2022-10-09T21:03:15.158Z,8.68
2022-10-09T21:05:43.682Z,8.67
2022-10-09T21:08:11.437Z,8.73
2022-10-09T21:10:43.695Z,8.75
2022-10-09T21:13:11.233Z,8.74
2022-10-09T21:15:43.639Z,8.76
2022-10-09T21:18:11.750Z,8.77
2022-10-09T21:20:41.958Z,8.80
2022-10-09T21:23:10.432Z,8.82
2022-10-09T21:25:38.698Z,8.84
2022-10-09T21:28:06.774Z,8.84
2022-10-09T21:30:41.611Z,8.87
2022-10-09T21:33:09.606Z,8.86
2022-10-09T21:35:41.339Z,8.85
2022-10-09T21:38:12.875Z,8.86
2022-10-09T21:40:40.510Z,8.88
2022-10-09T21:43:10.442Z,8.91
2022-10-09T21:45:38.721Z,8.94
2022-10-09T21:48:07.009Z,8.96
2022-10-09T21:50:36.238Z,8.97
2022-10-09T21:53:05.515Z,8.97
2022-10-09T21:55:33.203Z,8.97
2022-10-09T21:58:00.768Z,8.99
2022-10-09T22:00:28.307Z,8.99
2022-10-09T22:02:55.867Z,9.03
2022-10-09T22:05:23.408Z,9.02
2022-10-09T22:07:51.014Z,9.04
2022-10-09T22:10:20.547Z,9.05
2022-10-09T22:12:48.239Z,9.05
2022-10-09T22:15:16.050Z,9.07
2022-10-09T22:17:43.578Z,9.06
2022-10-09T22:20:11.140Z,9.06
2022-10-09T22:22:38.671Z,9.06
2022-10-09T22:25:07.309Z,9.04
2022-10-09T22:27:36.298Z,9.06
2022-10-09T22:30:04.217Z,9.07
2022-10-09T22:32:31.750Z,9.08
2022-10-09T22:34:59.311Z,9.08
2022-10-09T22:37:26.922Z,9.08
2022-10-09T22:39:54.426Z,9.09
2022-10-09T22:42:21.991Z,9.07
2022-10-09T22:44:50.861Z,9.07
2022-10-09T22:47:18.390Z,9.06
2022-10-09T22:49:46.168Z,9.04
2022-10-09T22:52:13.682Z,9.04
2022-10-09T22:54:41.225Z,9.03
2022-10-09T22:57:08.858Z,9.04
2022-10-09T22:59:36.441Z,9.03
2022-10-09T23:02:05.478Z,9.01
2022-10-09T23:04:33.174Z,8.99
2022-10-09T23:07:01.919Z,8.98
2022-10-09T23:09:32.233Z,8.98
2022-10-09T23:12:00.931Z,8.98
2022-10-09T23:14:28.851Z,8.98
2022-10-09T23:16:56.454Z,8.96
2022-10-09T23:19:25.338Z,8.96
2022-10-09T23:21:52.865Z,8.95
2022-10-09T23:24:20.389Z,8.92
2022-10-09T23:26:51.780Z,8.91
2022-10-09T23:29:20.679Z,8.88
2022-10-09T23:31:49.385Z,8.87
2022-10-09T23:34:17.007Z,8.84
2022-10-09T23:36:45.886Z,8.80
2022-10-09T23:39:14.222Z,8.77
2022-10-09T23:41:41.827Z,8.76
2022-10-09T23:44:09.414Z,8.73
2022-10-09T23:46:37.672Z,8.69
2022-10-09T23:49:06.469Z,8.67
2022-10-09T23:51:34.128Z,8.66
2022-10-09T23:54:03.025Z,8.63
2022-10-09T23:56:33.144Z,8.59
2022-10-09T23:59:02.244Z,8.54
